createdAt,value
2023-05-11T00:00:35.580Z,101362.59
2023-05-11T00:03:08.473Z,101366.53
2023-05-11T00:05:42.179Z,101366.53
2023-05-11T00:08:17.177Z,101364.56
2023-05-11T00:10:51.562Z,101371.69
2023-05-11T00:13:24.278Z,101372.84
2023-05-11T00:15:57.028Z,101363.00
2023-05-11T00:18:29.772Z,101364.16
2023-05-11T00:21:02.557Z,101369.66
2023-05-11T00:23:35.349Z,101359.38
2023-05-11T00:26:09.340Z,101362.94
2023-05-11T00:28:42.573Z,101362.53
2023-05-11T00:31:15.428Z,101360.97
2023-05-11T00:33:48.255Z,101365.34
2023-05-11T00:36:21.028Z,101364.16
2023-05-11T00:38:53.871Z,101360.16
2023-05-11T00:41:28.161Z,101367.66
2023-05-11T00:44:00.983Z,101368.06
2023-05-11T00:46:34.468Z,101367.31
2023-05-11T00:49:07.536Z,101362.94
2023-05-11T00:51:41.075Z,101368.06
2023-05-11T00:54:15.526Z,101369.66
2023-05-11T00:56:49.861Z,101364.91
2023-05-11T00:59:22.901Z,101363.78
2023-05-11T01:01:55.737Z,101358.63
2023-05-11T01:04:28.780Z,101352.31
2023-05-11T01:07:07.336Z,101353.88
2023-05-11T01:09:50.603Z,101358.59
2023-05-11T01:12:30.985Z,101358.56
2023-05-11T01:15:09.982Z,101363.28
2023-05-11T01:17:50.081Z,101355.44
2023-05-11T01:20:27.217Z,101360.91
2023-05-11T01:23:18.253Z,101357.78
2023-05-11T01:26:08.931Z,101357.75
2023-05-11T01:29:03.270Z,101364.03
2023-05-11T01:31:41.735Z,101360.94
2023-05-11T01:34:19.042Z,101363.25
2023-05-11T01:36:55.721Z,101359.72
2023-05-11T01:39:33.310Z,101362.88
2023-05-11T01:42:09.593Z,101360.13
2023-05-11T01:44:45.443Z,101361.28
2023-05-11T01:47:21.359Z,101361.69
2023-05-11T01:49:55.703Z,101358.56
2023-05-11T01:52:30.456Z,101361.69
2023-05-11T01:55:05.901Z,101371.91
2023-05-11T01:57:39.973Z,101369.19
2023-05-11T02:00:14.146Z,101366.03
2023-05-11T02:02:50.687Z,101366.03
2023-05-11T02:05:25.093Z,101362.47
2023-05-11T02:07:59.498Z,101369.13
2023-05-11T02:10:35.293Z,101367.19
2023-05-11T02:13:11.015Z,101367.56
2023-05-11T02:15:45.951Z,101367.16
2023-05-11T02:18:21.866Z,101368.38
2023-05-11T02:21:04.203Z,101369.53
2023-05-11T02:23:38.276Z,101372.69
2023-05-11T02:26:13.405Z,101360.47
2023-05-11T02:28:46.432Z,101369.50
2023-05-11T02:31:20.669Z,101371.91
2023-05-11T02:34:01.501Z,101365.56
2023-05-11T02:36:38.472Z,101371.91
2023-05-11T02:39:15.492Z,101364.00
2023-05-11T02:41:55.868Z,101363.97
2023-05-11T02:44:33.306Z,101367.91
2023-05-11T02:47:09.791Z,101364.75
2023-05-11T02:49:45.502Z,101370.69
2023-05-11T02:52:19.365Z,101367.47
2023-05-11T02:54:54.664Z,101368.31
2023-05-11T02:57:28.054Z,101370.63
2023-05-11T03:00:04.323Z,101373.41
2023-05-11T03:02:37.271Z,101381.22
2023-05-11T03:14:36.338Z,101382.06
2023-05-11T03:17:10.667Z,101386.81
2023-05-11T03:22:52.872Z,101380.88
2023-05-11T03:25:27.161Z,101382.06
2023-05-11T03:28:01.020Z,101380.47
2023-05-11T03:30:37.435Z,101375.72
2023-05-11T03:33:10.567Z,101374.97
2023-05-11T03:35:45.016Z,101377.72
2023-05-11T03:38:23.139Z,101373.75
2023-05-11T03:40:58.933Z,101371.78
2023-05-11T03:43:35.750Z,101375.31
2023-05-11T03:46:12.954Z,101366.25
2023-05-11T03:48:45.932Z,101363.84
2023-05-11T03:51:23.571Z,101361.94
2023-05-11T03:53:56.414Z,101364.72
2023-05-11T03:56:29.122Z,101359.19
2023-05-11T03:59:03.477Z,101357.22
2023-05-11T04:01:38.108Z,101366.69
2023-05-11T04:04:11.984Z,101357.63
2023-05-11T04:06:44.824Z,101359.19
2023-05-11T04:09:21.546Z,101354.41
2023-05-11T04:11:54.224Z,101354.81
2023-05-11T04:14:27.602Z,101360.69
2023-05-11T04:17:01.678Z,101359.59
2023-05-11T04:19:34.528Z,101355.97
2023-05-11T04:22:07.446Z,101361.13
2023-05-11T04:24:40.745Z,101359.94
2023-05-11T04:27:13.756Z,101364.28
2023-05-11T04:29:46.481Z,101367.84
2023-05-11T04:32:20.642Z,101363.06
2023-05-11T04:34:53.401Z,101369.41
2023-05-11T04:37:29.251Z,101377.34
2023-05-11T04:40:04.299Z,101371.44
2023-05-11T04:42:42.155Z,101380.50
2023-05-11T04:45:20.537Z,101380.47
2023-05-11T04:47:54.590Z,101381.63
2023-05-11T04:50:28.254Z,101384.00
2023-05-11T04:53:00.897Z,101381.63
2023-05-11T04:55:33.794Z,101384.44
2023-05-11T04:58:06.525Z,101393.06
2023-05-11T05:00:39.730Z,101384.41
2023-05-11T05:03:13.755Z,101397.00
2023-05-11T05:05:47.030Z,101392.31
2023-05-11T05:08:20.378Z,101395.88
2023-05-11T05:10:54.278Z,101395.44
2023-05-11T05:13:27.130Z,101403.41
2023-05-11T05:16:07.681Z,101409.66
2023-05-11T05:18:45.029Z,101395.88
2023-05-11T05:21:18.089Z,101404.16
2023-05-11T05:23:51.157Z,101414.41
2023-05-11T05:26:24.043Z,101416.78
2023-05-11T05:28:57.991Z,101418.78
2023-05-11T05:31:31.195Z,101417.56
2023-05-11T05:34:05.489Z,101419.19
2023-05-11T05:36:39.228Z,101423.13
2023-05-11T05:39:12.654Z,101424.31
2023-05-11T05:41:46.403Z,101431.81
2023-05-11T05:44:19.352Z,101431.00
2023-05-11T05:46:52.113Z,101441.25
2023-05-11T05:49:26.272Z,101434.59
2023-05-11T05:51:59.118Z,101448.03
2023-05-11T05:54:32.934Z,101445.69
2023-05-11T05:57:06.872Z,101439.38
2023-05-11T05:59:39.722Z,101448.88
2023-05-11T06:02:13.646Z,101449.28
2023-05-11T06:04:51.178Z,101451.31
2023-05-11T06:07:25.616Z,101455.22
2023-05-11T06:09:58.713Z,101456.44
2023-05-11T06:12:31.542Z,101455.69
2023-05-11T06:15:05.359Z,101452.94
2023-05-11T06:17:39.393Z,101460.44
2023-05-11T06:20:14.914Z,101448.63
2023-05-11T06:22:47.859Z,101455.78
2023-05-11T06:25:20.892Z,101452.22
2023-05-11T06:27:53.795Z,101458.19
2023-05-11T06:30:27.002Z,101458.97
2023-05-11T06:33:00.544Z,101456.66
2023-05-11T06:35:34.690Z,101459.03
2023-05-11T06:38:07.430Z,101459.09
2023-05-11T06:40:41.893Z,101470.53
2023-05-11T06:43:15.120Z,101470.94
2023-05-11T06:46:01.053Z,101468.63
2023-05-11T06:48:38.498Z,101474.13
2023-05-11T06:51:15.099Z,101471.00
2023-05-11T06:53:50.068Z,101469.44
2023-05-11T06:56:22.842Z,101465.91
2023-05-11T06:58:56.034Z,101469.47
2023-05-11T07:01:29.125Z,101471.88
2023-05-11T07:04:01.960Z,101474.22
2023-05-11T07:06:36.307Z,101469.13
2023-05-11T07:09:09.041Z,101477.41
2023-05-11T07:11:41.971Z,101478.22
2023-05-11T07:14:14.766Z,101471.09
2023-05-11T07:16:47.926Z,101482.97
2023-05-11T07:19:20.738Z,101484.59
2023-05-11T07:21:55.344Z,101490.09
2023-05-11T07:24:28.270Z,101486.97
2023-05-11T07:27:02.019Z,101486.97
2023-05-11T07:29:34.922Z,101481.84
2023-05-11T07:32:07.739Z,101483.81
2023-05-11T07:34:41.169Z,101485.38
2023-05-11T07:37:15.343Z,101493.31
2023-05-11T07:39:48.162Z,101496.47
2023-05-11T07:42:21.033Z,101494.50
2023-05-11T07:44:53.849Z,101493.69
2023-05-11T07:47:26.995Z,101488.53
2023-05-11T07:49:59.767Z,101497.63
2023-05-11T07:52:33.869Z,101487.72
2023-05-11T07:55:07.954Z,101496.38
2023-05-11T07:57:41.040Z,101495.22
2023-05-11T08:00:15.717Z,101490.81
2023-05-11T08:02:48.793Z,101490.00
2023-05-11T08:05:22.208Z,101487.59
2023-05-11T08:07:56.438Z,101495.88
2023-05-11T08:10:29.173Z,101495.47
2023-05-11T08:13:01.907Z,101498.63
2023-05-11T08:15:34.879Z,101496.25
2023-05-11T08:18:07.879Z,101502.84
2023-05-11T08:20:42.179Z,101492.91
2023-05-11T08:23:18.191Z,101493.97
2023-05-11T08:25:52.903Z,101499.00
2023-05-11T08:28:25.629Z,101501.72
2023-05-11T08:30:59.153Z,101508.31
2023-05-11T08:33:38.115Z,101501.41
2023-05-11T08:36:13.306Z,101497.44
2023-05-11T08:38:47.428Z,101506.53
2023-05-11T08:41:20.506Z,101505.69
2023-05-11T08:43:53.925Z,101504.00
2023-05-11T08:46:30.782Z,101508.00
2023-05-11T08:49:04.054Z,101504.06
2023-05-11T08:51:38.366Z,101506.31
2023-05-11T08:54:12.853Z,101502.31
2023-05-11T08:56:48.570Z,101507.88
2023-05-11T08:59:22.090Z,101507.81
2023-05-11T09:01:56.965Z,101504.69
2023-05-11T09:04:30.511Z,101501.50
2023-05-11T09:07:03.551Z,101498.38
2023-05-11T09:09:37.667Z,101506.28
2023-05-11T09:12:10.848Z,101503.81
2023-05-11T09:14:44.035Z,101503.44
2023-05-11T09:17:16.793Z,101507.81
2023-05-11T09:20:01.061Z,101505.03
2023-05-11T09:22:36.174Z,101510.06
2023-05-11T09:25:12.532Z,101506.06
2023-05-11T09:27:46.552Z,101507.69
2023-05-11T09:30:22.886Z,101511.56
2023-05-11T09:32:59.605Z,101515.41
2023-05-11T09:35:34.198Z,101508.50
2023-05-11T09:38:09.245Z,101514.06
2023-05-11T09:40:52.082Z,101503.41
2023-05-11T09:43:26.959Z,101520.06
2023-05-11T09:46:03.983Z,101505.81
2023-05-11T09:48:36.725Z,101509.53
2023-05-11T09:51:09.565Z,101506.00
2023-05-11T09:53:45.786Z,101502.84
2023-05-11T09:56:20.086Z,101511.63
2023-05-11T09:58:54.497Z,101511.63
2023-05-11T10:01:32.388Z,101508.84
2023-05-11T10:04:22.022Z,101508.09
2023-05-11T10:06:55.387Z,101500.88
2023-05-11T10:09:28.538Z,101502.84
2023-05-11T10:12:04.029Z,101511.22
2023-05-11T10:14:37.246Z,101510.78
2023-05-11T10:17:13.242Z,101507.94
2023-05-11T10:19:46.363Z,101514.28
2023-05-11T10:22:19.799Z,101509.13
2023-05-11T10:24:53.035Z,101503.16
2023-05-11T10:27:29.138Z,101518.59
2023-05-11T10:30:04.205Z,101521.75
2023-05-11T10:32:39.055Z,101525.72
2023-05-11T10:35:12.250Z,101522.16
2023-05-11T10:37:47.594Z,101523.38
2023-05-11T10:40:21.037Z,101524.53
2023-05-11T10:43:23.770Z,101533.81
2023-05-11T10:46:05.674Z,101525.91
2023-05-11T10:49:09.969Z,101528.75
2023-05-11T10:51:55.103Z,101516.50
2023-05-11T10:54:39.279Z,101531.19
2023-05-11T10:57:22.885Z,101522.19
2023-05-11T11:00:21.390Z,101522.19
2023-05-11T11:02:54.633Z,101522.19
2023-05-11T11:05:33.801Z,101522.91
2023-05-11T11:08:13.371Z,101523.75
2023-05-11T11:10:46.617Z,101530.03
2023-05-11T11:13:20.090Z,101533.19
2023-05-11T11:16:16.208Z,101537.09
2023-05-11T11:18:49.513Z,101532.31
2023-05-11T11:21:42.216Z,101535.47
2023-05-11T11:24:46.664Z,101525.13
2023-05-11T11:27:19.576Z,101525.09
2023-05-11T11:30:17.420Z,101516.25
2023-05-11T11:32:53.348Z,101522.19
2023-05-11T11:35:48.810Z,101525.81
2023-05-11T11:38:21.808Z,101522.59
2023-05-11T11:40:54.836Z,101519.28
2023-05-11T11:43:29.848Z,101519.97
2023-05-11T11:46:03.837Z,101521.50
2023-05-11T11:48:40.661Z,101525.31
2023-05-11T11:51:14.449Z,101530.84
2023-05-11T11:54:01.992Z,101535.53
2023-05-11T11:56:40.367Z,101533.16
2023-05-11T11:59:16.247Z,101537.47
2023-05-11T12:01:53.139Z,101534.75
2023-05-11T12:04:42.145Z,101535.53
2023-05-11T12:07:17.026Z,101535.72
2023-05-11T12:09:50.352Z,101535.72
2023-05-11T12:12:23.158Z,101538.06
2023-05-11T12:14:56.057Z,101535.13
2023-05-11T12:17:34.523Z,101540.66
2023-05-11T12:20:17.245Z,101534.88
2023-05-11T12:22:50.877Z,101538.09
2023-05-11T12:25:23.979Z,101528.09
2023-05-11T12:28:00.460Z,101524.00
2023-05-11T12:30:37.124Z,101519.41
2023-05-11T12:33:09.960Z,101520.84
2023-05-11T12:35:44.843Z,101522.38
2023-05-11T12:38:17.689Z,101515.16
2023-05-11T12:40:50.870Z,101516.91
2023-05-11T12:43:24.154Z,101517.84
2023-05-11T12:45:56.994Z,101506.81
2023-05-11T12:48:29.859Z,101509.72
2023-05-11T12:51:03.982Z,101509.06
2023-05-11T12:53:37.457Z,101514.81
2023-05-11T12:56:10.345Z,101510.72
2023-05-11T12:58:43.116Z,101519.94
2023-05-11T13:01:16.419Z,101519.75
2023-05-11T13:03:49.350Z,101519.97
2023-05-11T13:09:27.808Z,101521.06
2023-05-11T13:12:19.353Z,101520.97
2023-05-11T13:15:05.245Z,101523.84
2023-05-11T13:17:39.603Z,101523.16
2023-05-11T13:20:19.321Z,101528.56
2023-05-11T13:22:52.580Z,101526.75
2023-05-11T13:25:28.759Z,101520.84
2023-05-11T13:28:01.630Z,101530.22
2023-05-11T13:30:35.429Z,101527.88
2023-05-11T13:33:08.431Z,101530.66
2023-05-11T13:35:42.591Z,101535.81
2023-05-11T13:38:15.736Z,101528.50
2023-05-11T13:40:49.748Z,101522.38
2023-05-11T13:43:22.698Z,101534.22
2023-05-11T13:45:55.961Z,101535.09
2023-05-11T13:48:28.850Z,101537.13
2023-05-11T13:51:01.667Z,101533.00
2023-05-11T13:53:34.165Z,101532.09
2023-05-11T13:56:08.413Z,101531.81
2023-05-11T13:58:41.241Z,101534.13
2023-05-11T14:01:14.106Z,101533.13
2023-05-11T14:03:52.433Z,101525.06
2023-05-11T14:06:26.601Z,101525.53
2023-05-11T14:08:59.433Z,101528.25
2023-05-11T14:11:33.556Z,101529.06
2023-05-11T14:14:06.469Z,101532.66
2023-05-11T14:16:39.551Z,101533.00
2023-05-11T14:19:12.297Z,101536.59
2023-05-11T14:21:45.227Z,101537.38
2023-05-11T14:24:18.016Z,101545.09
2023-05-11T14:26:52.497Z,101541.16
2023-05-11T14:29:25.181Z,101536.53
2023-05-11T14:31:57.925Z,101537.88
2023-05-11T14:34:30.636Z,101537.72
2023-05-11T14:37:03.384Z,101536.44
2023-05-11T14:39:36.169Z,101535.94
2023-05-11T14:42:11.047Z,101538.41
2023-05-11T14:44:43.787Z,101540.31
2023-05-11T14:47:16.659Z,101539.97
2023-05-11T14:49:49.440Z,101538.31
2023-05-11T14:52:22.110Z,101540.16
2023-05-11T14:54:54.931Z,101533.84
2023-05-11T14:57:29.347Z,101544.59
2023-05-11T15:00:02.175Z,101544.25
2023-05-11T15:02:34.996Z,101547.88
2023-05-11T15:05:08.154Z,101542.63
2023-05-11T15:10:13.555Z,101541.78
2023-05-11T15:12:47.662Z,101549.13
2023-05-11T15:15:20.700Z,101542.75
2023-05-11T15:17:53.776Z,101537.22
2023-05-11T15:20:26.529Z,101538.75
2023-05-11T15:22:59.364Z,101534.78
2023-05-11T15:25:32.684Z,101548.41
2023-05-11T15:28:12.493Z,101537.56
2023-05-11T15:30:45.614Z,101537.06
2023-05-11T15:33:18.279Z,101543.75
2023-05-11T15:35:51.347Z,101544.66
2023-05-11T15:38:24.320Z,101542.69
2023-05-11T15:40:57.222Z,101543.47
2023-05-11T15:43:31.337Z,101546.91
2023-05-11T15:46:04.888Z,101540.19
2023-05-11T15:48:37.818Z,101553.22
2023-05-11T15:51:10.576Z,101542.97
2023-05-11T15:53:43.353Z,101548.88
2023-05-11T15:56:16.056Z,101542.06
2023-05-11T15:58:50.737Z,101545.94
2023-05-11T16:01:23.643Z,101538.78
2023-05-11T16:03:57.176Z,101543.91
2023-05-11T16:06:30.493Z,101537.66
2023-05-11T16:09:04.647Z,101542.16
2023-05-11T16:11:37.684Z,101541.09
2023-05-11T16:14:11.890Z,101538.34
2023-05-11T16:16:44.783Z,101536.09
2023-05-11T16:19:17.614Z,101534.53
2023-05-11T16:21:50.370Z,101537.88
2023-05-11T16:24:23.219Z,101547.84
2023-05-11T16:26:56.089Z,101537.16
2023-05-11T16:29:30.156Z,101539.88
2023-05-11T16:32:03.150Z,101548.34
2023-05-11T16:34:37.592Z,101545.19
2023-05-11T16:37:10.680Z,101542.81
2023-05-11T16:39:43.895Z,101536.09
2023-05-11T16:42:16.873Z,101536.69
2023-05-11T16:44:50.857Z,101539.63
2023-05-11T16:47:24.744Z,101546.81
2023-05-11T16:49:57.559Z,101540.44
2023-05-11T16:52:30.146Z,101543.22
2023-05-11T16:55:03.791Z,101536.56
2023-05-11T16:57:36.543Z,101541.50
2023-05-11T17:00:12.138Z,101545.50
2023-05-11T17:02:45.096Z,101553.56
2023-05-11T17:05:19.001Z,101545.63
2023-05-11T17:07:51.771Z,101547.38
2023-05-11T17:10:24.936Z,101556.97
2023-05-11T17:12:57.896Z,101549.81
2023-05-11T17:15:32.282Z,101553.75
2023-05-11T17:18:05.316Z,101556.19
2023-05-11T17:20:38.232Z,101562.34
2023-05-11T17:23:10.792Z,101557.28
2023-05-11T17:25:44.310Z,101559.22
2023-05-11T17:28:17.325Z,101563.34
2023-05-11T17:30:55.600Z,101558.50
2023-05-11T17:33:28.533Z,101545.13
2023-05-11T17:36:02.289Z,101554.31
2023-05-11T17:38:35.128Z,101546.94
2023-05-11T17:41:08.168Z,101555.28
2023-05-11T17:43:42.144Z,101559.22
2023-05-11T17:46:16.285Z,101558.66
2023-05-11T17:48:49.090Z,101562.66
2023-05-11T17:51:22.072Z,101559.50
2023-05-11T17:53:57.393Z,101570.81
2023-05-11T17:56:30.158Z,101566.16
2023-05-11T17:59:03.359Z,101560.84
2023-05-11T18:01:37.598Z,101568.97
2023-05-11T18:04:10.480Z,101569.91
2023-05-11T18:06:46.284Z,101567.06
2023-05-11T18:09:19.587Z,101572.00
2023-05-11T18:11:52.351Z,101568.03
2023-05-11T18:14:26.618Z,101575.31
2023-05-11T18:17:02.163Z,101576.91
2023-05-11T18:19:34.936Z,101574.97
2023-05-11T18:22:07.776Z,101575.38
2023-05-11T18:24:40.456Z,101582.13
2023-05-11T18:27:13.312Z,101578.31
2023-05-11T18:29:46.196Z,101588.66
2023-05-11T18:32:20.533Z,101584.38
2023-05-11T18:34:54.535Z,101582.78
2023-05-11T18:37:28.218Z,101590.00
2023-05-11T18:40:02.760Z,101593.28
2023-05-11T18:42:35.801Z,101583.00
2023-05-11T18:45:09.102Z,101581.09
2023-05-11T18:47:44.469Z,101587.09
2023-05-11T18:50:17.511Z,101590.28
2023-05-11T18:52:50.557Z,101589.56
2023-05-11T18:55:23.965Z,101583.25
2023-05-11T18:57:57.902Z,101596.78
2023-05-11T19:00:37.168Z,101592.41
2023-05-11T19:03:11.720Z,101601.66
2023-05-11T19:05:45.087Z,101606.47
2023-05-11T19:08:18.623Z,101608.06
2023-05-11T19:10:51.686Z,101602.56
2023-05-11T19:13:25.326Z,101610.88
2023-05-11T19:15:58.097Z,101609.84
2023-05-11T19:18:35.533Z,101611.88
2023-05-11T19:21:08.514Z,101611.94
2023-05-11T19:23:41.198Z,101618.69
2023-05-11T19:26:14.016Z,101622.66
2023-05-11T19:28:46.717Z,101617.16
2023-05-11T19:31:19.538Z,101619.16
2023-05-11T19:33:53.662Z,101621.22
2023-05-11T19:36:28.690Z,101620.47
2023-05-11T19:39:01.665Z,101629.19
2023-05-11T19:41:37.536Z,101622.44
2023-05-11T19:44:10.481Z,101629.91
2023-05-11T19:46:46.513Z,101625.25
2023-05-11T19:49:21.085Z,101625.22
2023-05-11T19:51:56.130Z,101628.41
2023-05-11T19:54:28.960Z,101628.81
2023-05-11T19:57:01.631Z,101635.97
2023-05-11T19:59:34.896Z,101637.19
2023-05-11T20:02:08.228Z,101633.22
2023-05-11T20:04:46.534Z,101638.03
2023-05-11T20:07:20.232Z,101649.09
2023-05-11T20:09:53.506Z,101645.53
2023-05-11T20:12:26.480Z,101648.75
2023-05-11T20:14:59.277Z,101644.75
2023-05-11T20:17:32.145Z,101650.72
2023-05-11T20:20:08.145Z,101654.69
2023-05-11T20:22:41.126Z,101650.78
2023-05-11T20:25:18.432Z,101649.19
2023-05-11T20:27:53.267Z,101651.97
2023-05-11T20:30:26.268Z,101660.28
2023-05-11T20:35:36.094Z,101652.38
2023-05-11T20:38:08.828Z,101654.38
2023-05-11T20:40:41.627Z,101659.13
2023-05-11T20:43:14.914Z,101658.34
2023-05-11T20:45:48.983Z,101657.91
2023-05-11T20:48:32.460Z,101661.88
2023-05-11T20:51:13.687Z,101661.09
2023-05-11T20:53:46.509Z,101659.13
2023-05-11T20:56:19.243Z,101661.13
2023-05-11T20:58:51.964Z,101659.53
2023-05-11T21:01:24.950Z,101663.09
2023-05-11T21:03:58.660Z,101654.78
2023-05-11T21:06:33.700Z,101661.50
2023-05-11T21:09:06.765Z,101659.53
2023-05-11T21:11:39.458Z,101650.81
2023-05-11T21:14:12.179Z,101661.09
2023-05-11T21:16:45.093Z,101665.06
2023-05-11T21:19:18.480Z,101657.53
2023-05-11T21:21:52.586Z,101663.47
2023-05-11T21:24:25.441Z,101664.25
2023-05-11T21:26:58.217Z,101661.88
2023-05-11T21:29:31.038Z,101661.09
2023-05-11T21:32:04.340Z,101664.28
2023-05-11T21:34:37.139Z,101661.88
2023-05-11T21:37:14.500Z,101671.78
2023-05-11T21:39:48.096Z,101667.41
2023-05-11T21:42:20.771Z,101675.34
2023-05-11T21:44:53.497Z,101672.16
2023-05-11T21:47:26.464Z,101674.53
2023-05-11T21:49:59.788Z,101674.56
2023-05-11T21:52:33.961Z,101673.75
2023-05-11T21:55:08.020Z,101676.91
2023-05-11T21:57:40.740Z,101670.56
2023-05-11T22:00:18.323Z,101674.94
2023-05-11T22:02:51.923Z,101669.00
2023-05-11T22:05:24.682Z,101672.94
2023-05-11T22:08:10.544Z,101672.94
2023-05-11T22:10:47.431Z,101665.03
2023-05-11T22:13:20.598Z,101676.91
2023-05-11T22:15:53.571Z,101673.34
2023-05-11T22:18:26.306Z,101674.56
2023-05-11T22:20:59.081Z,101677.31
2023-05-11T22:23:33.208Z,101676.50
2023-05-11T22:26:06.022Z,101678.88
2023-05-11T22:28:38.917Z,101683.22
2023-05-11T22:31:11.563Z,101674.53
2023-05-11T22:33:44.355Z,101679.66
2023-05-11T22:36:17.019Z,101680.84
2023-05-11T22:38:51.406Z,101686.78
2023-05-11T22:41:24.169Z,101680.84
2023-05-11T22:43:56.940Z,101683.22
2023-05-11T22:46:29.730Z,101682.41
2023-05-11T22:49:02.765Z,101686.34
2023-05-11T22:51:35.378Z,101680.81
2023-05-11T22:54:09.764Z,101690.72
2023-05-11T22:56:42.988Z,101684.78
2023-05-11T22:59:15.776Z,101690.31
2023-05-11T23:01:48.630Z,101689.50
2023-05-11T23:04:21.510Z,101688.31
2023-05-11T23:06:54.070Z,101687.91
2023-05-11T23:09:28.357Z,101690.28
2023-05-11T23:12:01.274Z,101686.75
2023-05-11T23:14:34.099Z,101687.13
2023-05-11T23:17:06.894Z,101689.50
2023-05-11T23:19:39.703Z,101682.72
2023-05-11T23:22:12.469Z,101691.44
2023-05-11T23:24:46.588Z,101692.22
2023-05-11T23:27:19.268Z,101693.03
2023-05-11T23:29:52.018Z,101694.22
2023-05-11T23:32:24.811Z,101689.88
2023-05-11T23:34:57.512Z,101693.03
2023-05-11T23:37:30.234Z,101689.47
2023-05-11T23:40:05.676Z,101689.84
2023-05-11T23:42:39.073Z,101686.28
2023-05-11T23:45:13.401Z,101691.00
2023-05-11T23:47:46.184Z,101693.31
2023-05-11T23:50:19.571Z,101698.06
2023-05-11T23:52:52.568Z,101696.50
2023-05-11T23:55:26.549Z,101686.22
2023-05-11T23:57:59.258Z,101688.25
